Time;durP1;ratioP1;P1;durP2;ratioP2;P2;SDS_P1;SDS_P2;PMS_P1;PMS_P2;Temp;Humidity;BMP_temperature;BMP_pressure;BME280_temperature;BME280_humidity;BME280_pressure;Samples;Min_cycle;Max_cycle;Signal;HPM_P1;HPM_P2
2021/01/09 00:00:13;;;;;;;2.87;2.53;;;;;;;6.70;100.00;95840.78;4934621;29;20683;-91
2021/01/09 00:02:40;;;;;;;5.37;2.77;;;;;;;6.75;100.00;95827.28;4934597;29;20252;-91
2021/01/09 00:05:10;;;;;;;3.87;1.73;;;;;;;6.83;100.00;95833.44;4934487;28;20321;-90
2021/01/09 00:07:37;;;;;;;2.47;1.90;;;;;;;6.90;100.00;95838.88;4934331;28;20207;-92
2021/01/09 00:10:06;;;;;;;6.40;2.20;;;;;;;6.78;100.00;95833.03;4934496;29;20209;-92
2021/01/09 00:12:33;;;;;;;2.00;1.87;;;;;;;6.65;100.00;95819.47;4934406;29;20206;-90
2021/01/09 00:15:00;;;;;;;1.50;1.40;;;;;;;6.66;100.00;95800.25;4934569;28;20206;-91
2021/01/09 00:17:27;;;;;;;1.70;1.60;;;;;;;6.54;100.00;95804.00;4934408;28;20207;-91
2021/01/09 00:19:53;;;;;;;1.47;1.00;;;;;;;6.48;100.00;95809.81;4934485;29;20199;-90
2021/01/09 00:22:21;;;;;;;1.13;1.10;;;;;;;6.38;100.00;95810.69;4934639;29;20268;-91
2021/01/09 00:24:48;;;;;;;2.57;1.33;;;;;;;6.37;100.00;95809.06;4934264;28;20226;-91
2021/01/09 00:27:15;;;;;;;1.00;0.90;;;;;;;6.21;100.00;95795.78;4934410;28;20672;-90
2021/01/09 00:29:43;;;;;;;0.70;0.70;;;;;;;6.23;100.00;95808.69;4934428;29;20207;-91
2021/01/09 00:32:10;;;;;;;0.93;0.80;;;;;;;6.22;100.00;95802.66;4934569;28;20657;-91
2021/01/09 00:34:37;;;;;;;1.53;0.80;;;;;;;6.09;100.00;95792.50;4934152;28;20203;-90
2021/01/09 00:37:04;;;;;;;0.50;0.50;;;;;;;6.13;100.00;95799.13;4934382;29;20310;-91
2021/01/09 00:39:32;;;;;;;0.90;0.90;;;;;;;6.09;100.00;95799.53;4934373;28;20644;-90
2021/01/09 00:42:02;;;;;;;2.03;0.93;;;;;;;6.21;100.00;95821.06;4934009;29;20771;-92
2021/01/09 00:44:29;;;;;;;1.23;1.13;;;;;;;6.26;100.00;95824.88;4933812;29;20314;-91
2021/01/09 00:46:56;;;;;;;1.67;1.00;;;;;;;6.14;100.00;95823.41;4933950;29;20277;-89
2021/01/09 00:49:23;;;;;;;1.10;0.80;;;;;;;6.07;100.00;95840.59;4933931;29;20199;-91
2021/01/09 00:51:50;;;;;;;1.30;0.70;;;;;;;5.85;100.00;95834.69;4933740;28;20632;-91
2021/01/09 00:54:17;;;;;;;0.63;0.63;;;;;;;5.82;100.00;95810.69;4934216;28;20589;-92
2021/01/09 00:56:45;;;;;;;0.40;0.40;;;;;;;5.60;100.00;95796.19;4930225;28;20301;-93
2021/01/09 00:59:12;;;;;;;0.40;0.40;;;;;;;5.43;100.00;95795.91;4933409;29;20240;-92
2021/01/09 01:01:39;;;;;;;0.63;0.63;;;;;;;5.43;100.00;95808.13;4933151;29;20602;-91
2021/01/09 01:04:05;;;;;;;1.00;0.90;;;;;;;5.55;100.00;95796.59;4932951;29;20238;-91
2021/01/09 01:06:32;;;;;;;1.10;0.70;;;;;;;5.51;100.00;95795.25;4932379;28;20203;-92
2021/01/09 01:08:59;;;;;;;0.93;0.83;;;;;;;5.24;100.00;95811.56;4932822;29;20268;-90
2021/01/09 01:11:27;;;;;;;0.87;0.60;;;;;;;5.03;100.00;95823.91;4932482;29;20199;-91
2021/01/09 01:13:56;;;;;;;5.90;2.80;;;;;;;4.88;100.00;95841.66;4932985;29;20282;-90
2021/01/09 01:16:24;;;;;;;3.97;1.80;;;;;;;4.77;100.00;95845.22;4932817;28;20203;-89
2021/01/09 01:18:51;;;;;;;1.30;1.20;;;;;;;4.77;100.00;95855.63;4931765;28;20730;-90
2021/01/09 01:21:18;;;;;;;2.70;0.77;;;;;;;4.64;100.00;95849.81;4932702;28;20202;-89
2021/01/09 01:23:45;;;;;;;0.67;0.67;;;;;;;4.64;100.00;95863.69;4932252;29;20205;-89
2021/01/09 01:26:12;;;;;;;0.50;0.50;;;;;;;4.53;100.00;95864.59;4932877;29;20663;-89
2021/01/09 01:28:40;;;;;;;0.77;0.77;;;;;;;4.39;100.00;95890.13;4932603;29;20203;-89
2021/01/09 01:31:08;;;;;;;0.60;0.60;;;;;;;4.25;100.00;95919.91;4933123;29;20203;-89
2021/01/09 01:33:35;;;;;;;1.17;1.17;;;;;;;4.46;100.00;95927.69;4932604;29;20293;-91
2021/01/09 01:36:01;;;;;;;2.70;2.60;;;;;;;4.55;100.00;95926.94;4932732;29;20198;-90
2021/01/09 01:38:28;;;;;;;0.60;0.60;;;;;;;4.56;100.00;95938.97;4932530;29;20285;-91
2021/01/09 01:41:01;;;;;;;4.00;0.60;;;;;;;4.52;100.00;95956.63;4932590;29;20206;-91
2021/01/09 01:43:28;;;;;;;0.60;0.60;;;;;;;4.63;100.00;95954.91;4932243;29;20187;-91
2021/01/09 01:45:55;;;;;;;0.40;0.40;;;;;;;4.61;100.00;95949.03;4932157;29;20317;-91
2021/01/09 01:48:23;;;;;;;0.43;0.43;;;;;;;4.56;100.00;95972.00;4932068;29;20300;-90
2021/01/09 01:50:50;;;;;;;0.77;0.67;;;;;;;4.49;100.00;95976.88;4932219;28;20329;-90
2021/01/09 01:53:18;;;;;;;0.50;0.50;;;;;;;4.43;100.00;95966.97;4932451;29;20293;-91
2021/01/09 01:55:45;;;;;;;0.73;0.73;;;;;;;4.32;100.00;95961.84;4932612;29;20707;-91
2021/01/09 01:58:12;;;;;;;0.33;0.33;;;;;;;4.07;100.00;95961.28;4932462;29;20591;-93
2021/01/09 02:00:45;;;;;;;0.60;0.60;;;;;;;4.31;100.00;95981.84;4932388;29;20436;-92
2021/01/09 02:03:12;;;;;;;0.50;0.50;;;;;;;4.12;100.00;95992.09;4932374;29;20221;-91
2021/01/09 02:05:43;;;;;;;1.10;0.70;;;;;;;3.98;100.00;95991.47;4932171;29;20226;-90
2021/01/09 02:08:12;;;;;;;0.30;0.30;;;;;;;4.00;100.00;95991.34;4932652;29;20672;-91
2021/01/09 02:10:42;;;;;;;0.30;0.30;;;;;;;3.91;100.00;96012.88;4932122;29;20207;-91
2021/01/09 02:13:17;;;;;;;0.30;0.30;;;;;;;3.89;100.00;96009.59;4932214;29;20223;-91
2021/01/09 02:15:44;;;;;;;0.40;0.40;;;;;;;3.89;100.00;95997.41;4932485;29;20182;-90
2021/01/09 02:18:14;;;;;;;0.40;0.40;;;;;;;3.75;100.00;96008.09;4932407;29;20234;-91
2021/01/09 02:20:43;;;;;;;3.37;0.70;;;;;;;3.63;100.00;96024.66;4932183;29;20230;-91
2021/01/09 02:23:10;;;;;;;0.60;0.60;;;;;;;3.78;100.00;96045.06;4932136;29;20241;-90
2021/01/09 02:25:37;;;;;;;0.33;0.33;;;;;;;3.88;100.00;96052.97;4931699;29;20234;-90
2021/01/09 02:28:04;;;;;;;0.43;0.43;;;;;;;3.98;100.00;96061.69;4932087;29;20249;-91
2021/01/09 02:30:34;;;;;;;0.40;0.40;;;;;;;4.08;100.00;96071.34;4934916;29;20203;-91
2021/01/09 02:33:03;;;;;;;0.63;0.63;;;;;;;4.17;100.00;96086.22;4935330;29;20261;-91
2021/01/09 02:35:33;;;;;;;0.50;0.50;;;;;;;4.07;100.00;96074.91;4935089;29;20262;-91
2021/01/09 02:38:00;;;;;;;0.50;0.50;;;;;;;4.13;100.00;96061.41;4934874;29;20218;-89
2021/01/09 02:40:28;;;;;;;0.50;0.50;;;;;;;4.15;100.00;96042.09;4935077;29;20977;-90
2021/01/09 02:42:55;;;;;;;0.70;0.70;;;;;;;4.21;100.00;96059.81;4935090;29;20203;-89
2021/01/09 02:45:22;;;;;;;0.30;0.30;;;;;;;4.10;100.00;96056.44;4935137;29;20223;-91
2021/01/09 02:47:48;;;;;;;0.43;0.43;;;;;;;3.86;100.00;96073.06;4935078;29;20203;-90
2021/01/09 02:50:15;;;;;;;0.50;0.50;;;;;;;3.95;100.00;96081.88;4934741;29;20247;-91
2021/01/09 02:52:43;;;;;;;0.50;0.50;;;;;;;3.84;100.00;96063.72;4935407;29;20252;-90
2021/01/09 02:55:10;;;;;;;0.80;0.80;;;;;;;3.95;100.00;96066.28;4935201;29;20680;-91
2021/01/09 02:57:37;;;;;;;0.37;0.37;;;;;;;3.81;100.00;96076.03;4935103;29;20731;-90
2021/01/09 03:00:05;;;;;;;0.30;0.30;;;;;;;3.89;100.00;96079.78;4935110;29;20265;-91
2021/01/09 03:02:32;;;;;;;0.30;0.30;;;;;;;3.97;100.00;96082.59;4935057;29;20231;-92
2021/01/09 03:04:59;;;;;;;0.40;0.40;;;;;;;3.98;100.00;96089.44;4934630;29;20419;-91
2021/01/09 03:07:25;;;;;;;0.40;0.40;;;;;;;4.02;100.00;96091.69;4935198;29;20210;-91
2021/01/09 03:09:52;;;;;;;0.30;0.30;;;;;;;4.09;100.00;96104.19;4934837;29;20260;-88
2021/01/09 03:12:19;;;;;;;0.30;0.30;;;;;;;3.91;100.00;96099.50;4934731;29;20205;-90
2021/01/09 03:14:47;;;;;;;0.40;0.40;;;;;;;4.04;100.00;96109.75;4934592;29;20282;-91
2021/01/09 03:17:13;;;;;;;0.30;0.30;;;;;;;4.01;100.00;96104.81;4934203;29;20238;-91
2021/01/09 03:19:40;;;;;;;0.43;0.43;;;;;;;3.96;100.00;96105.19;4934614;29;20207;-91
2021/01/09 03:22:07;;;;;;;0.33;0.33;;;;;;;4.08;100.00;96112.94;4934906;29;20203;-91
2021/01/09 03:24:34;;;;;;;0.20;0.20;;;;;;;4.13;100.00;96111.66;4934896;29;20318;-90
2021/01/09 03:27:00;;;;;;;0.50;0.50;;;;;;;4.08;100.00;96103.38;4934615;29;20599;-91
2021/01/09 03:29:27;;;;;;;0.43;0.43;;;;;;;4.01;100.00;96113.44;4935144;29;20206;-91
2021/01/09 03:31:55;;;;;;;0.30;0.30;;;;;;;3.91;100.00;96115.09;4935733;28;20230;-90
2021/01/09 03:34:22;;;;;;;0.37;0.37;;;;;;;3.94;100.00;96114.88;4935146;29;20230;-89
2021/01/09 03:36:48;;;;;;;0.23;0.23;;;;;;;3.92;100.00;96108.97;4935680;28;20746;-90
2021/01/09 03:39:15;;;;;;;0.30;0.30;;;;;;;3.93;100.00;96100.22;4935182;29;20683;-91
2021/01/09 03:41:42;;;;;;;0.50;0.27;;;;;;;3.84;100.00;96094.91;4933535;29;20236;-91
2021/01/09 03:44:09;;;;;;;0.27;0.27;;;;;;;3.95;100.00;96108.75;4934445;29;20218;-91
2021/01/09 03:46:36;;;;;;;3.13;0.60;;;;;;;3.85;100.00;96117.38;4936601;29;20296;-91
2021/01/09 03:49:04;;;;;;;0.50;0.50;;;;;;;3.80;100.00;96105.56;4934734;28;20285;-91
2021/01/09 03:51:30;;;;;;;3.93;2.23;;;;;;;3.78;100.00;96117.88;4933946;28;20239;-90
2021/01/09 03:53:57;;;;;;;0.97;0.87;;;;;;;3.83;100.00;96111.47;4934209;29;20203;-91
2021/01/09 03:56:24;;;;;;;0.70;0.70;;;;;;;3.77;100.00;96111.00;4934030;29;20257;-90
2021/01/09 03:58:51;;;;;;;1.50;1.20;;;;;;;3.82;100.00;96121.06;4934076;29;20207;-91
2021/01/09 04:01:18;;;;;;;0.57;0.50;;;;;;;3.88;100.00;96130.13;4934259;29;20210;-92
2021/01/09 04:03:45;;;;;;;0.47;0.47;;;;;;;3.96;100.00;96123.38;4934277;29;20345;-92
2021/01/09 04:06:12;;;;;;;1.10;1.00;;;;;;;3.79;100.00;96129.09;4934158;29;20198;-92
2021/01/09 04:08:39;;;;;;;2.13;1.87;;;;;;;3.73;100.00;96119.97;4934161;29;20277;-92
2021/01/09 04:11:06;;;;;;;0.90;0.90;;;;;;;3.80;100.00;96130.72;4934436;29;20750;-91
2021/01/09 04:13:33;;;;;;;1.07;1.00;;;;;;;3.69;100.00;96133.34;4934145;29;20664;-90
2021/01/09 04:16:03;;;;;;;0.57;0.57;;;;;;;3.68;100.00;96127.31;4933912;28;20679;-90
2021/01/09 04:18:31;;;;;;;0.60;0.60;;;;;;;3.71;100.00;96132.28;4933737;29;20293;-91
2021/01/09 04:20:58;;;;;;;0.53;0.53;;;;;;;3.56;100.00;96134.28;4933807;29;20732;-91
2021/01/09 04:23:25;;;;;;;1.33;1.20;;;;;;;3.60;100.00;96141.84;4933744;29;20226;-90
2021/01/09 04:25:52;;;;;;;1.30;1.10;;;;;;;3.57;100.00;96155.94;4933878;29;20253;-90
2021/01/09 04:28:19;;;;;;;8.63;4.47;;;;;;;3.43;100.00;96167.38;4933604;29;20202;-91
2021/01/09 04:30:46;;;;;;;3.73;1.77;;;;;;;3.49;100.00;96179.06;4933331;28;20202;-90
2021/01/09 04:33:12;;;;;;;1.03;1.00;;;;;;;3.44;100.00;96161.22;4933315;29;20206;-91
2021/01/09 04:35:39;;;;;;;0.50;0.50;;;;;;;3.47;100.00;96150.59;4933168;29;20195;-91
2021/01/09 04:38:06;;;;;;;0.40;0.40;;;;;;;3.55;100.00;96152.59;4933519;29;20206;-90
2021/01/09 04:40:35;;;;;;;0.40;0.30;;;;;;;3.57;100.00;96156.75;4933301;29;20238;-90
2021/01/09 04:43:03;;;;;;;0.30;0.30;;;;;;;3.63;100.00;96162.41;4933890;29;20210;-91
2021/01/09 04:45:30;;;;;;;0.67;0.67;;;;;;;3.64;100.00;96174.44;4933535;29;20233;-91
2021/01/09 04:47:59;;;;;;;0.23;0.23;;;;;;;3.71;100.00;96166.09;4933439;29;20210;-91
2021/01/09 04:50:27;;;;;;;0.43;0.43;;;;;;;3.66;100.00;96163.00;4932996;29;20296;-90
2021/01/09 04:52:56;;;;;;;0.80;0.80;;;;;;;3.65;100.00;96176.94;4933159;29;20348;-91
2021/01/09 04:55:23;;;;;;;0.57;0.57;;;;;;;3.68;100.00;96173.28;4933511;29;20676;-91
2021/01/09 04:57:52;;;;;;;1.40;1.30;;;;;;;3.69;100.00;96169.72;4933178;29;20211;-91
2021/01/09 05:00:21;;;;;;;1.43;0.87;;;;;;;3.72;100.00;96172.09;4932847;28;20330;-91
2021/01/09 05:02:48;;;;;;;0.70;0.70;;;;;;;3.69;100.00;96177.53;4933353;28;20207;-91
2021/01/09 05:05:14;;;;;;;1.27;1.00;;;;;;;3.58;100.00;96186.97;4932900;29;20319;-89
2021/01/09 05:07:41;;;;;;;0.90;0.87;;;;;;;3.60;100.00;96186.03;4933067;28;20249;-90
2021/01/09 05:10:08;;;;;;;0.40;0.40;;;;;;;3.60;100.00;96160.03;4932984;29;20891;-90
2021/01/09 05:12:36;;;;;;;0.60;0.60;;;;;;;3.55;100.00;96156.03;4932766;29;20249;-91
2021/01/09 05:15:05;;;;;;;3.20;2.57;;;;;;;3.49;100.00;96153.91;4932857;28;20836;-91
2021/01/09 05:17:32;;;;;;;0.90;0.90;;;;;;;3.46;100.00;96159.31;4933122;29;20195;-90
2021/01/09 05:20:00;;;;;;;0.43;0.43;;;;;;;3.45;100.00;96178.47;4933098;29;20242;-90
2021/01/09 05:22:28;;;;;;;0.70;0.70;;;;;;;3.38;100.00;96192.03;4933401;28;20264;-90
2021/01/09 05:24:55;;;;;;;0.40;0.40;;;;;;;3.33;100.00;96189.81;4932658;28;20330;-91
2021/01/09 05:27:22;;;;;;;0.50;0.50;;;;;;;3.36;100.00;96196.50;4932619;29;20202;-90
2021/01/09 05:29:53;;;;;;;0.60;0.60;;;;;;;3.36;100.00;96210.34;4932917;29;20207;-92
2021/01/09 05:32:22;;;;;;;0.50;0.50;;;;;;;3.50;100.00;96201.53;4932921;28;20213;-91
2021/01/09 05:34:48;;;;;;;0.20;0.20;;;;;;;3.35;100.00;96213.88;4932984;29;20199;-89
2021/01/09 05:37:21;;;;;;;0.73;0.73;;;;;;;3.31;100.00;96221.06;4932457;29;20202;-90
2021/01/09 05:39:53;;;;;;;0.60;0.60;;;;;;;3.21;100.00;96246.06;4932272;28;20206;-91
2021/01/09 05:42:27;;;;;;;0.60;0.60;;;;;;;3.15;100.00;96240.50;4918430;29;20310;-91
2021/01/09 05:44:55;;;;;;;1.90;0.90;;;;;;;3.31;100.00;96265.22;4920174;29;20834;-90
2021/01/09 05:47:24;;;;;;;1.67;1.50;;;;;;;3.22;100.00;96258.16;4930813;29;20265;-91
2021/01/09 05:49:52;;;;;;;1.30;1.00;;;;;;;3.17;100.00;96269.81;4931157;28;20203;-90
2021/01/09 05:52:19;;;;;;;0.50;0.50;;;;;;;3.13;100.00;96256.22;4931787;28;20203;-91
2021/01/09 05:54:46;;;;;;;0.70;0.70;;;;;;;3.01;100.00;96293.44;4932352;28;20203;-91
2021/01/09 05:57:17;;;;;;;1.60;1.50;;;;;;;2.98;100.00;96276.34;4932303;29;20238;-91
2021/01/09 05:59:44;;;;;;;0.50;0.50;;;;;;;3.12;100.00;96301.31;4932625;28;20198;-90
2021/01/09 06:02:12;;;;;;;1.10;0.83;;;;;;;3.19;100.00;96327.66;4932696;28;20451;-91
2021/01/09 06:04:44;;;;;;;0.87;0.80;;;;;;;3.12;100.00;96310.84;4931545;28;20227;-89
2021/01/09 06:07:20;;;;;;;1.00;1.00;;;;;;;3.04;100.00;96335.59;4932321;29;20214;-91
2021/01/09 06:09:53;;;;;;;0.40;0.40;;;;;;;2.95;100.00;96345.84;4932327;29;20709;-91
2021/01/09 06:12:22;;;;;;;0.40;0.40;;;;;;;3.10;100.00;96340.38;4933703;28;20694;-90
2021/01/09 06:14:50;;;;;;;0.40;0.40;;;;;;;3.09;100.00;96346.50;4932165;29;20241;-92
2021/01/09 06:17:19;;;;;;;0.60;0.60;;;;;;;3.08;100.00;96342.25;4932141;29;20211;-92
2021/01/09 06:19:47;;;;;;;1.07;1.07;;;;;;;2.93;100.00;96338.16;4932218;28;20257;-93
2021/01/09 06:25:12;;;;;;;1.13;1.03;;;;;;;3.01;100.00;96341.03;4932909;28;20230;-93
2021/01/09 06:27:44;;;;;;;0.40;0.40;;;;;;;3.08;100.00;96368.22;4932211;28;20726;-91
2021/01/09 06:30:15;;;;;;;0.63;0.63;;;;;;;3.13;100.00;96370.47;4932199;28;20276;-91
2021/01/09 06:32:47;;;;;;;1.27;1.17;;;;;;;3.18;100.00;96393.53;4932055;29;20187;-91
2021/01/09 06:35:15;;;;;;;2.00;1.20;;;;;;;3.21;100.00;96386.34;4931824;28;20218;-92
2021/01/09 06:37:42;;;;;;;2.00;1.77;;;;;;;3.27;100.00;96377.28;4932528;28;20768;-90
2021/01/09 06:40:10;;;;;;;4.17;2.90;;;;;;;3.24;100.00;96385.28;4932807;28;20223;-91
2021/01/09 06:42:40;;;;;;;3.80;2.77;;;;;;;3.20;100.00;96383.88;4932382;28;20203;-93
2021/01/09 06:45:08;;;;;;;6.80;4.10;;;;;;;3.28;100.00;96384.13;4931889;28;20313;-92
2021/01/09 06:47:35;;;;;;;34.20;13.70;;;;;;;3.29;100.00;96398.75;4931633;28;20732;-95
2021/01/09 06:50:34;;;;;;;65.20;31.23;;;;;;;3.32;100.00;96396.78;4931490;28;20242;-93
2021/01/09 06:53:01;;;;;;;13.00;9.20;;;;;;;3.33;100.00;96402.81;4892681;29;20311;-92
2021/01/09 06:56:04;;;;;;;13.80;8.60;;;;;;;3.30;100.00;96392.66;4923081;28;20293;-93
2021/01/09 06:58:31;;;;;;;15.63;8.73;;;;;;;3.31;100.00;96400.31;4932028;28;20683;-94
2021/01/09 07:01:20;;;;;;;7.13;5.50;;;;;;;3.22;100.00;96406.19;4932003;28;20759;-92
2021/01/09 07:03:47;;;;;;;0.83;0.83;;;;;;;3.24;100.00;96404.31;4912896;28;20281;-92
2021/01/09 07:06:15;;;;;;;0.70;0.70;;;;;;;3.36;100.00;96423.38;4912319;28;20234;-93
2021/01/09 07:08:44;;;;;;;1.23;0.97;;;;;;;3.31;100.00;96420.28;4912999;28;20751;-91
2021/01/09 07:11:14;;;;;;;1.00;1.00;;;;;;;3.14;100.00;96413.69;5159416;23;20241;-91
2021/01/09 07:13:41;;;;;;;1.00;0.90;;;;;;;3.27;100.00;96424.88;4969592;28;20213;-91
2021/01/09 07:16:09;;;;;;;0.50;0.50;;;;;;;3.30;100.00;96436.81;4970507;28;20216;-91
2021/01/09 07:18:50;;;;;;;0.50;0.50;;;;;;;3.36;100.00;96430.31;4972764;28;20201;-92
2021/01/09 07:21:24;;;;;;;0.50;0.50;;;;;;;3.41;100.00;96436.88;4973633;28;20692;-91
2021/01/09 07:23:55;;;;;;;3.20;2.50;;;;;;;3.35;100.00;96424.31;4973907;28;20211;-94
2021/01/09 07:26:26;;;;;;;1.00;1.00;;;;;;;3.33;100.00;96423.59;4955672;28;20226;-91
2021/01/09 07:28:53;;;;;;;1.40;1.30;;;;;;;3.35;100.00;96442.50;4953939;28;20210;-92
2021/01/09 07:31:24;;;;;;;0.63;0.63;;;;;;;3.27;100.00;96439.63;4953451;29;20256;-92
2021/01/09 07:33:57;;;;;;;0.90;0.90;;;;;;;3.40;100.00;96455.19;4956047;28;20201;-92
2021/01/09 07:36:30;;;;;;;1.17;1.17;;;;;;;3.46;100.00;96450.34;4955204;28;20639;-93
2021/01/09 07:39:01;;;;;;;0.80;0.80;;;;;;;3.37;100.00;96458.81;4954790;28;20686;-92
2021/01/09 07:41:32;;;;;;;0.97;0.97;;;;;;;3.55;100.00;96464.47;4953540;28;20202;-92
2021/01/09 07:44:12;;;;;;;0.40;0.40;;;;;;;3.45;100.00;96463.47;4953473;28;20263;-93
2021/01/09 07:46:51;;;;;;;1.50;1.40;;;;;;;3.39;100.00;96464.72;4953544;28;20619;-93
2021/01/09 07:49:26;;;;;;;0.70;0.70;;;;;;;3.36;100.00;96458.91;4959106;28;20197;-93
2021/01/09 07:51:56;;;;;;;0.50;0.50;;;;;;;3.17;100.00;96472.38;4967619;28;20217;-92
2021/01/09 07:54:36;;;;;;;3.73;2.93;;;;;;;3.29;100.00;96474.94;4953609;28;20201;-93
2021/01/09 07:57:03;;;;;;;3.57;3.23;;;;;;;3.46;100.00;96468.53;4953318;28;20198;-92
2021/01/09 07:59:36;;;;;;;0.93;0.93;;;;;;;3.45;100.00;96473.84;4953427;28;20207;-93
2021/01/09 08:02:03;;;;;;;1.50;1.37;;;;;;;3.50;100.00;96472.59;4952712;28;20218;-91
2021/01/09 08:04:30;;;;;;;0.90;0.90;;;;;;;3.55;100.00;96478.28;4953214;29;20237;-93
2021/01/09 08:07:04;;;;;;;1.20;1.10;;;;;;;3.46;100.00;96476.31;4953322;28;20202;-93
2021/01/09 08:09:30;;;;;;;1.50;1.40;;;;;;;3.24;100.00;96463.22;4953436;29;20202;-91
2021/01/09 08:11:57;;;;;;;1.50;1.40;;;;;;;3.34;100.00;96459.84;4952462;28;20240;-90
2021/01/09 08:14:27;;;;;;;2.30;1.83;;;;;;;3.42;100.00;96479.25;4952999;29;20259;-91
2021/01/09 08:17:09;;;;;;;3.60;2.83;;;;;;;3.57;100.00;96484.22;4952833;29;20214;-91
2021/01/09 08:19:41;;;;;;;1.50;1.40;;;;;;;3.56;100.00;96479.94;4966663;28;20201;-94
2021/01/09 08:22:10;;;;;;;2.27;1.80;;;;;;;3.76;100.00;96477.66;4973993;28;20251;-92
2021/01/09 08:24:37;;;;;;;1.43;1.33;;;;;;;3.51;100.00;96470.81;4973836;28;20316;-92
2021/01/09 08:27:04;;;;;;;5.73;4.93;;;;;;;3.67;100.00;96462.72;4971595;28;20201;-93
2021/01/09 08:29:30;;;;;;;1.27;1.27;;;;;;;3.58;100.00;96459.03;4972266;28;20213;-94
2021/01/09 08:31:57;;;;;;;2.60;2.20;;;;;;;3.57;100.00;96457.38;4973649;28;20205;-94
2021/01/09 08:34:25;;;;;;;0.83;0.83;;;;;;;3.45;100.00;96466.06;4976649;28;20659;-93
2021/01/09 08:36:54;;;;;;;1.77;1.67;;;;;;;3.53;100.00;96446.38;4974440;28;20217;-93
2021/01/09 08:39:22;;;;;;;1.20;1.10;;;;;;;3.54;100.00;96461.03;4973574;28;20208;-94
2021/01/09 08:41:51;;;;;;;3.40;2.23;;;;;;;3.40;100.00;96456.00;4973857;28;20201;-93
2021/01/09 08:44:18;;;;;;;2.23;1.70;;;;;;;3.45;100.00;96476.44;4973078;28;20343;-92
2021/01/09 08:46:48;;;;;;;1.60;1.50;;;;;;;3.40;100.00;96470.75;4992852;28;20193;-91
2021/01/09 08:49:25;;;;;;;1.47;0.97;;;;;;;3.46;100.00;96465.94;4995408;28;20193;-94
2021/01/09 08:51:59;;;;;;;0.50;0.50;;;;;;;3.45;100.00;96451.28;5090247;23;20300;-94
2021/01/09 08:54:39;;;;;;;0.53;0.53;;;;;;;3.37;100.00;96471.81;4995034;28;20188;-92
2021/01/09 08:57:10;;;;;;;1.30;1.20;;;;;;;3.12;100.00;96469.25;4993316;28;20213;-93
2021/01/09 08:59:37;;;;;;;2.13;1.80;;;;;;;3.23;100.00;96457.19;4974757;28;20295;-93
2021/01/09 09:02:10;;;;;;;1.73;1.63;;;;;;;3.25;100.00;96480.44;4971529;28;20205;-92
2021/01/09 09:04:42;;;;;;;1.00;1.00;;;;;;;3.24;100.00;96478.81;4972114;28;20232;-93
2021/01/09 09:07:21;;;;;;;0.63;0.63;;;;;;;3.23;100.00;96482.34;4971777;28;20223;-93
2021/01/09 09:10:00;;;;;;;0.70;0.70;;;;;;;3.27;100.00;96501.97;4971535;28;20208;-94
2021/01/09 09:12:27;;;;;;;0.70;0.70;;;;;;;3.25;100.00;96489.06;4971155;28;20201;-92
2021/01/09 09:15:04;;;;;;;0.73;0.73;;;;;;;3.30;100.00;96479.19;4971564;28;20284;-93
2021/01/09 09:17:32;;;;;;;2.03;1.80;;;;;;;3.38;100.00;96468.25;4971328;28;20184;-93
2021/01/09 09:20:02;;;;;;;0.70;0.70;;;;;;;3.32;100.00;96479.06;4971346;28;20255;-93
2021/01/09 09:22:30;;;;;;;0.70;0.70;;;;;;;3.46;100.00;96475.50;4971206;28;20211;-92
2021/01/09 09:25:04;;;;;;;0.60;0.60;;;;;;;3.42;100.00;96476.66;4966819;28;20238;-93
2021/01/09 09:27:34;;;;;;;0.77;0.77;;;;;;;3.47;100.00;96467.63;4951941;28;20280;-94
2021/01/09 09:30:09;;;;;;;1.97;1.23;;;;;;;3.32;100.00;96471.28;4951946;29;20201;-91
2021/01/09 09:32:38;;;;;;;1.30;1.20;;;;;;;3.45;100.00;96485.06;4951793;28;20202;-92
2021/01/09 09:35:27;;;;;;;1.30;1.20;;;;;;;3.38;100.00;96481.25;4951484;28;20675;-94
2021/01/09 09:37:59;;;;;;;9.53;5.63;;;;;;;3.41;100.00;96481.03;4955754;28;20216;-94
2021/01/09 09:40:28;;;;;;;2.10;1.80;;;;;;;3.21;100.00;96476.41;4970161;28;20209;-95
2021/01/09 09:42:56;;;;;;;1.13;1.03;;;;;;;3.32;100.00;96486.88;4970870;28;20296;-92
2021/01/09 09:45:23;;;;;;;2.90;2.00;;;;;;;3.26;100.00;96485.56;4970168;28;20244;-93
2021/01/09 09:47:52;;;;;;;1.47;1.37;;;;;;;3.39;100.00;96479.47;4971101;28;20204;-93
2021/01/09 09:50:20;;;;;;;1.00;1.00;;;;;;;3.23;100.00;96484.94;4971159;28;20201;-95
2021/01/09 09:52:57;;;;;;;1.30;1.20;;;;;;;3.33;100.00;96493.75;4971134;28;20240;-92
2021/01/09 09:55:24;;;;;;;0.80;0.80;;;;;;;3.20;100.00;96485.16;4970662;28;20708;-94
2021/01/09 09:58:06;;;;;;;1.43;1.33;;;;;;;3.09;100.00;96504.09;4970363;28;20591;-93
2021/01/09 10:00:40;;;;;;;1.60;1.50;;;;;;;3.18;100.00;96492.22;4971286;28;20276;-92
2021/01/09 10:03:06;;;;;;;2.00;1.70;;;;;;;3.25;100.00;96501.22;4970802;28;20288;-93
2021/01/09 10:05:36;;;;;;;3.50;2.27;;;;;;;3.48;100.00;96505.66;4970226;28;20228;-94
2021/01/09 10:08:10;;;;;;;5.20;4.43;;;;;;;3.55;100.00;96485.25;4972398;28;20224;-94
2021/01/09 10:10:41;;;;;;;7.60;4.67;;;;;;;3.44;100.00;96488.63;4972281;28;20200;-94
2021/01/09 10:13:09;;;;;;;3.00;2.70;;;;;;;3.62;100.00;96493.44;4970714;28;20201;-92
2021/01/09 10:15:36;;;;;;;1.20;1.10;;;;;;;3.47;100.00;96490.16;4975252;28;20237;-94
2021/01/09 10:18:03;;;;;;;2.17;1.70;;;;;;;3.44;100.00;96478.22;4970927;28;20202;-93
2021/01/09 10:20:30;;;;;;;1.30;1.20;;;;;;;3.52;100.00;96473.28;4970323;28;20217;-93
2021/01/09 10:22:57;;;;;;;1.60;1.50;;;;;;;3.50;100.00;96470.00;4970543;28;20205;-93
2021/01/09 10:25:23;;;;;;;2.33;1.00;;;;;;;3.64;100.00;96460.34;4970341;28;20228;-94
2021/01/09 10:27:51;;;;;;;1.00;1.00;;;;;;;3.63;100.00;96459.53;4969804;28;20207;-93
2021/01/09 10:30:22;;;;;;;1.37;1.27;;;;;;;3.49;100.00;96460.50;4970361;28;20208;-92
2021/01/09 10:32:49;;;;;;;0.90;0.90;;;;;;;3.50;100.00;96451.81;4973631;28;20214;-95
2021/01/09 10:35:22;;;;;;;1.10;1.00;;;;;;;3.61;100.00;96443.22;4975384;28;20185;-95
2021/01/09 10:37:49;;;;;;;1.00;1.00;;;;;;;3.61;100.00;96443.22;4973580;28;20285;-94
2021/01/09 10:40:15;;;;;;;0.97;0.97;;;;;;;3.63;100.00;96436.13;4972097;28;20228;-94
2021/01/09 10:42:42;;;;;;;1.00;1.00;;;;;;;3.55;100.00;96444.50;4969005;28;20217;-94
2021/01/09 10:45:12;;;;;;;1.43;1.33;;;;;;;3.53;100.00;96441.19;4953989;28;20225;-93
2021/01/09 10:47:40;;;;;;;1.87;1.50;;;;;;;3.55;100.00;96433.28;4971522;28;20205;-94
2021/01/09 10:50:08;;;;;;;0.90;0.90;;;;;;;3.53;100.00;96440.34;4970760;28;20622;-92
2021/01/09 10:52:35;;;;;;;0.83;0.83;;;;;;;3.75;100.00;96444.81;4973147;28;20747;-95
2021/01/09 10:55:02;;;;;;;0.70;0.70;;;;;;;3.68;100.00;96435.81;4973415;28;20193;-93
2021/01/09 10:57:29;;;;;;;0.80;0.80;;;;;;;3.75;100.00;96430.06;4973469;28;20635;-94
2021/01/09 10:59:55;;;;;;;0.90;0.90;;;;;;;3.65;100.00;96439.47;4958667;28;20206;-94
2021/01/09 11:02:22;;;;;;;0.70;0.70;;;;;;;3.78;100.00;96437.63;4954095;29;20202;-94
2021/01/09 11:04:50;;;;;;;1.03;1.00;;;;;;;3.80;100.00;96430.53;4955008;29;20237;-96
2021/01/09 11:29:32;;;;;;;2.30;2.10;;;;;;;3.71;100.00;96438.19;4977116;28;20217;-95
2021/01/09 11:32:01;;;;;;;0.93;0.93;;;;;;;3.87;100.00;96450.88;4973807;28;20283;-96
2021/01/09 11:34:28;;;;;;;2.73;2.30;;;;;;;3.64;100.00;96453.41;4976768;28;20189;-95
2021/01/09 11:36:55;;;;;;;0.93;0.93;;;;;;;3.55;100.00;96464.47;4977766;28;20201;-95
2021/01/09 11:42:48;;;;;;;2.20;2.00;;;;;;;3.63;100.00;96466.50;4934553;28;20258;-96
2021/01/09 11:45:16;;;;;;;2.90;2.30;;;;;;;3.56;100.00;96466.09;4981370;28;20225;-96
2021/01/09 11:47:43;;;;;;;4.10;3.53;;;;;;;3.72;100.00;96469.25;4981500;28;20265;-94
2021/01/09 11:50:11;;;;;;;2.30;2.10;;;;;;;3.56;100.00;96472.13;4980709;28;20197;-95
2021/01/09 11:52:37;;;;;;;2.07;1.87;;;;;;;3.52;100.00;96478.50;4980461;28;20193;-96
2021/01/09 11:55:06;;;;;;;2.23;1.97;;;;;;;3.53;100.00;96484.50;4978342;28;20585;-95
2021/01/09 11:57:33;;;;;;;2.70;2.50;;;;;;;3.38;100.00;96489.03;4982121;28;20201;-94
2021/01/09 12:00:09;;;;;;;1.07;1.07;;;;;;;3.47;100.00;96485.81;4975610;28;20193;-95
2021/01/09 12:02:37;;;;;;;2.57;1.90;;;;;;;3.60;100.00;96485.72;4976936;28;20197;-94
2021/01/09 12:05:06;;;;;;;1.63;1.53;;;;;;;3.45;100.00;96487.66;4976499;28;20220;-96
2021/01/09 12:07:33;;;;;;;2.83;2.63;;;;;;;3.66;100.00;96487.06;4979476;28;20201;-95
2021/01/09 12:10:00;;;;;;;2.60;2.13;;;;;;;3.45;100.00;96479.03;4976389;28;20205;-96